sensor_id;sensor_type;location;lat;lon;timestamp;pressure;altitude;pressure_sealevel;temperature;humidity
71778;BME280;59609;52.430;4.668;2023-06-22T00:01:21;101984.38;;;16.97;100.00
71778;BME280;59609;52.430;4.668;2023-06-22T00:03:47;101975.50;;;16.93;100.00
71778;BME280;59609;52.430;4.668;2023-06-22T00:06:13;101988.41;;;16.94;100.00
71778;BME280;59609;52.430;4.668;2023-06-22T00:08:39;101976.25;;;16.87;100.00
71778;BME280;59609;52.430;4.668;2023-06-22T00:11:05;101991.88;;;16.88;100.00
71778;BME280;59609;52.430;4.668;2023-06-22T00:13:30;101988.78;;;16.83;100.00
71778;BME280;59609;52.430;4.668;2023-06-22T00:15:55;101988.91;;;16.90;100.00
71778;BME280;59609;52.430;4.668;2023-06-22T00:18:21;101986.88;;;16.84;100.00
71778;BME280;59609;52.430;4.668;2023-06-22T00:20:46;101982.50;;;16.81;100.00
71778;BME280;59609;52.430;4.668;2023-06-22T00:23:12;101989.13;;;16.80;100.00
71778;BME280;59609;52.430;4.668;2023-06-22T00:25:38;101988.94;;;16.82;100.00
71778;BME280;59609;52.430;4.668;2023-06-22T00:28:06;101988.94;;;16.82;100.00
71778;BME280;59609;52.430;4.668;2023-06-22T00:30:36;101991.56;;;16.83;100.00
71778;BME280;59609;52.430;4.668;2023-06-22T00:33:01;101987.91;;;16.75;100.00
71778;BME280;59609;52.430;4.668;2023-06-22T00:35:27;101989.66;;;16.76;100.00
71778;BME280;59609;52.430;4.668;2023-06-22T00:37:59;101989.34;;;16.71;100.00
71778;BME280;59609;52.430;4.668;2023-06-22T00:40:38;101993.69;;;16.73;100.00
71778;BME280;59609;52.430;4.668;2023-06-22T00:43:12;101987.25;;;16.65;100.00
71778;BME280;59609;52.430;4.668;2023-06-22T00:45:38;101984.66;;;16.63;100.00
71778;BME280;59609;52.430;4.668;2023-06-22T00:48:04;101993.69;;;16.65;100.00
71778;BME280;59609;52.430;4.668;2023-06-22T00:50:33;101993.69;;;16.65;100.00
71778;BME280;59609;52.430;4.668;2023-06-22T00:53:20;101985.38;;;16.57;100.00
71778;BME280;59609;52.430;4.668;2023-06-22T00:55:45;101992.34;;;16.61;100.00
71778;BME280;59609;52.430;4.668;2023-06-22T00:58:12;101985.38;;;16.57;100.00
71778;BME280;59609;52.430;4.668;2023-06-22T01:00:41;101993.03;;;16.63;100.00
71778;BME280;59609;52.430;4.668;2023-06-22T01:03:07;101997.03;;;16.61;100.00
71778;BME280;59609;52.430;4.668;2023-06-22T01:05:41;101989.88;;;16.58;100.00
71778;BME280;59609;52.430;4.668;2023-06-22T01:08:29;101986.06;;;16.59;100.00
71778;BME280;59609;52.430;4.668;2023-06-22T01:11:07;101980.50;;;16.59;100.00
71778;BME280;59609;52.430;4.668;2023-06-22T01:16:25;101964.84;;;16.50;100.00
71778;BME280;59609;52.430;4.668;2023-06-22T01:21:57;101967.97;;;16.55;100.00
71778;BME280;59609;52.430;4.668;2023-06-22T01:27:47;101961.03;;;16.51;100.00
71778;BME280;59609;52.430;4.668;2023-06-22T01:30:16;101960.69;;;16.46;100.00
71778;BME280;59609;52.430;4.668;2023-06-22T01:32:44;101966.41;;;16.44;100.00
71778;BME280;59609;52.430;4.668;2023-06-22T01:35:10;101958.63;;;16.40;100.00
71778;BME280;59609;52.430;4.668;2023-06-22T01:37:37;101971.44;;;16.49;100.00
71778;BME280;59609;52.430;4.668;2023-06-22T01:40:09;101978.06;;;16.48;100.00
71778;BME280;59609;52.430;4.668;2023-06-22T01:42:38;101974.75;;;16.44;100.00
71778;BME280;59609;52.430;4.668;2023-06-22T01:48:26;101968.34;;;16.36;100.00
71778;BME280;59609;52.430;4.668;2023-06-22T01:50:52;101976.34;;;16.39;100.00
71778;BME280;59609;52.430;4.668;2023-06-22T01:53:23;101969.03;;;16.38;100.00
71778;BME280;59609;52.430;4.668;2023-06-22T01:55:49;101974.78;;;16.36;100.00
71778;BME280;59609;52.430;4.668;2023-06-22T01:58:15;101974.78;;;16.36;100.00
71778;BME280;59609;52.430;4.668;2023-06-22T02:00:55;101969.38;;;16.35;100.00
71778;BME280;59609;52.430;4.668;2023-06-22T02:03:30;101966.28;;;16.30;100.00
71778;BME280;59609;52.430;4.668;2023-06-22T02:06:06;101963.66;;;16.28;100.00
71778;BME280;59609;52.430;4.668;2023-06-22T02:08:48;101969.44;;;16.27;100.00
71778;BME280;59609;52.430;4.668;2023-06-22T02:11:18;101965.41;;;16.21;100.00
71778;BME280;59609;52.430;4.668;2023-06-22T02:13:45;101958.13;;;16.20;100.00
71778;BME280;59609;52.430;4.668;2023-06-22T02:16:12;101961.44;;;16.24;100.00
71778;BME280;59609;52.430;4.668;2023-06-22T02:18:38;101968.38;;;16.20;100.00
71778;BME280;59609;52.430;4.668;2023-06-22T02:21:05;101963.53;;;16.14;100.00
71778;BME280;59609;52.430;4.668;2023-06-22T02:23:32;101965.97;;;16.17;100.00
71778;BME280;59609;52.430;4.668;2023-06-22T02:26:01;101961.63;;;16.14;100.00
71778;BME280;59609;52.430;4.668;2023-06-22T02:28:30;101967.19;;;16.14;100.00
71778;BME280;59609;52.430;4.668;2023-06-22T02:30:55;101958.50;;;16.09;100.00
71778;BME280;59609;52.430;4.668;2023-06-22T02:33:24;101957.63;;;16.09;100.00
71778;BME280;59609;52.430;4.668;2023-06-22T02:35:52;101960.41;;;16.09;100.00
71778;BME280;59609;52.430;4.668;2023-06-22T02:38:21;101966.31;;;16.06;100.00
71778;BME280;59609;52.430;4.668;2023-06-22T02:40:48;101960.94;;;16.04;100.00
71778;BME280;59609;52.430;4.668;2023-06-22T02:43:13;101961.78;;;16.05;100.00
71778;BME280;59609;52.430;4.668;2023-06-22T02:45:39;101969.44;;;16.03;100.00
71778;BME280;59609;52.430;4.668;2023-06-22T02:48:07;101967.91;;;16.00;100.00
71778;BME280;59609;52.430;4.668;2023-06-22T02:50:33;101967.53;;;16.03;100.00
71778;BME280;59609;52.430;4.668;2023-06-22T02:52:58;101950.84;;;15.95;100.00
71778;BME280;59609;52.430;4.668;2023-06-22T02:55:23;101968.41;;;16.04;100.00
71778;BME280;59609;52.430;4.668;2023-06-22T02:57:49;101964.25;;;16.00;100.00
71778;BME280;59609;52.430;4.668;2023-06-22T03:00:18;101961.63;;;15.98;100.00
71778;BME280;59609;52.430;4.668;2023-06-22T03:02:45;101954.34;;;15.97;100.00
71778;BME280;59609;52.430;4.668;2023-06-22T03:05:14;101956.41;;;15.95;100.00
71778;BME280;59609;52.430;4.668;2023-06-22T03:07:44;101951.03;;;15.93;100.00
71778;BME280;59609;52.430;4.668;2023-06-22T03:10:14;101954.84;;;15.92;100.00
71778;BME280;59609;52.430;4.668;2023-06-22T03:12:40;101944.25;;;15.88;100.00
71778;BME280;59609;52.430;4.668;2023-06-22T03:15:07;101945.13;;;15.88;100.00
71778;BME280;59609;52.430;4.668;2023-06-22T03:17:34;101951.41;;;15.90;100.00
71778;BME280;59609;52.430;4.668;2023-06-22T03:20:00;101947.41;;;15.93;100.00
71778;BME280;59609;52.430;4.668;2023-06-22T03:22:25;101943.22;;;15.89;100.00
71778;BME280;59609;52.430;4.668;2023-06-22T03:24:51;101958.50;;;15.93;100.00
71778;BME280;59609;52.430;4.668;2023-06-22T03:27:19;101952.09;;;15.92;100.00
71778;BME280;59609;52.430;4.668;2023-06-22T03:29:44;101939.91;;;15.85;100.00
71778;BME280;59609;52.430;4.668;2023-06-22T03:32:10;101951.03;;;15.93;100.00
71778;BME280;59609;52.430;4.668;2023-06-22T03:34:35;101956.75;;;15.92;100.00
71778;BME280;59609;52.430;4.668;2023-06-22T03:37:03;101963.03;;;15.94;100.00
71778;BME280;59609;52.430;4.668;2023-06-22T03:39:29;101954.00;;;15.92;100.00
71778;BME280;59609;52.430;4.668;2023-06-22T03:41:57;101944.97;;;15.90;100.00
71778;BME280;59609;52.430;4.668;2023-06-22T03:44:22;101943.38;;;15.95;100.00
71778;BME280;59609;52.430;4.668;2023-06-22T03:46:48;101931.41;;;15.95;100.00
71778;BME280;59609;52.430;4.668;2023-06-22T03:49:13;101925.31;;;15.91;100.00
71778;BME280;59609;52.430;4.668;2023-06-22T03:51:38;101928.47;;;15.96;100.00
71778;BME280;59609;52.430;4.668;2023-06-22T03:54:07;101919.75;;;16.00;100.00
71778;BME280;59609;52.430;4.668;2023-06-22T03:56:32;101923.94;;;16.04;100.00
71778;BME280;59609;52.430;4.668;2023-06-22T03:59:01;101918.53;;;16.02;100.00
71778;BME280;59609;52.430;4.668;2023-06-22T04:01:26;101914.53;;;16.05;100.00
71778;BME280;59609;52.430;4.668;2023-06-22T04:03:51;101926.88;;;16.10;100.00
71778;BME280;59609;52.430;4.668;2023-06-22T04:06:17;101940.22;;;16.15;100.00
71778;BME280;59609;52.430;4.668;2023-06-22T04:08:45;101924.63;;;16.14;100.00
71778;BME280;59609;52.430;4.668;2023-06-22T04:11:13;101930.84;;;16.24;100.00
71778;BME280;59609;52.430;4.668;2023-06-22T04:13:45;101927.50;;;16.28;100.00
71778;BME280;59609;52.430;4.668;2023-06-22T04:16:10;101927.00;;;16.33;100.00
71778;BME280;59609;52.430;4.668;2023-06-22T04:18:36;101921.44;;;16.33;100.00
71778;BME280;59609;52.430;4.668;2023-06-22T04:21:02;101915.34;;;16.37;100.00
71778;BME280;59609;52.430;4.668;2023-06-22T04:23:27;101920.19;;;16.43;100.00
71778;BME280;59609;52.430;4.668;2023-06-22T04:25:53;101917.03;;;16.46;100.00
71778;BME280;59609;52.430;4.668;2023-06-22T04:28:21;101922.56;;;16.55;100.00
71778;BME280;59609;52.430;4.668;2023-06-22T04:30:46;101926.41;;;16.62;100.00
71778;BME280;59609;52.430;4.668;2023-06-22T04:33:15;101931.44;;;16.66;100.00
71778;BME280;59609;52.430;4.668;2023-06-22T04:35:47;101925.84;;;16.74;100.00
71778;BME280;59609;52.430;4.668;2023-06-22T04:38:13;101918.69;;;16.80;100.00
71778;BME280;59609;52.430;4.668;2023-06-22T04:40:39;101920.72;;;16.86;100.00
71778;BME280;59609;52.430;4.668;2023-06-22T04:43:05;101925.75;;;16.90;100.00
71778;BME280;59609;52.430;4.668;2023-06-22T04:45:34;101928.69;;;16.97;100.00
71778;BME280;59609;52.430;4.668;2023-06-22T04:48:03;101927.06;;;17.03;100.00
71778;BME280;59609;52.430;4.668;2023-06-22T04:50:28;101929.63;;;17.12;100.00
71778;BME280;59609;52.430;4.668;2023-06-22T04:52:54;101924.16;;;17.27;100.00
71778;BME280;59609;52.430;4.668;2023-06-22T04:55:19;101924.53;;;18.73;100.00
71778;BME280;59609;52.430;4.668;2023-06-22T04:57:45;101929.91;;;19.82;100.00
71778;BME280;59609;52.430;4.668;2023-06-22T05:00:17;101941.06;;;20.25;100.00
71778;BME280;59609;52.430;4.668;2023-06-22T05:02:47;101938.16;;;20.74;100.00
71778;BME280;59609;52.430;4.668;2023-06-22T05:05:12;101934.78;;;21.32;97.15
71778;BME280;59609;52.430;4.668;2023-06-22T05:07:50;101928.34;;;21.45;96.37
71778;BME280;59609;52.430;4.668;2023-06-22T05:10:19;101940.41;;;21.39;96.17
71778;BME280;59609;52.430;4.668;2023-06-22T05:12:45;101926.06;;;21.81;93.27
71778;BME280;59609;52.430;4.668;2023-06-22T05:15:11;101932.81;;;21.26;95.41
71778;BME280;59609;52.430;4.668;2023-06-22T05:17:37;101922.72;;;20.84;100.00
71778;BME280;59609;52.430;4.668;2023-06-22T05:20:11;101925.47;;;21.25;98.88
71778;BME280;59609;52.430;4.668;2023-06-22T05:22:37;101922.06;;;20.89;100.00
71778;BME280;59609;52.430;4.668;2023-06-22T05:25:02;101929.19;;;20.50;100.00
71778;BME280;59609;52.430;4.668;2023-06-22T05:27:28;101915.13;;;20.16;100.00
71778;BME280;59609;52.430;4.668;2023-06-22T05:29:54;101920.31;;;19.91;100.00
71778;BME280;59609;52.430;4.668;2023-06-22T05:32:19;101918.00;;;19.74;100.00
71778;BME280;59609;52.430;4.668;2023-06-22T05:34:45;101924.81;;;19.65;100.00
71778;BME280;59609;52.430;4.668;2023-06-22T05:37:10;101930.19;;;19.66;100.00
71778;BME280;59609;52.430;4.668;2023-06-22T05:39:38;101935.44;;;19.76;100.00
71778;BME280;59609;52.430;4.668;2023-06-22T05:42:05;101938.41;;;19.95;100.00
71778;BME280;59609;52.430;4.668;2023-06-22T05:44:31;101946.47;;;20.05;100.00
71778;BME280;59609;52.430;4.668;2023-06-22T05:46:56;101949.72;;;20.30;100.00
71778;BME280;59609;52.430;4.668;2023-06-22T05:49:21;101946.56;;;20.39;100.00
71778;BME280;59609;52.430;4.668;2023-06-22T05:51:48;101938.38;;;20.38;100.00
71778;BME280;59609;52.430;4.668;2023-06-22T05:54:13;101926.50;;;20.36;100.00
71778;BME280;59609;52.430;4.668;2023-06-22T05:56:40;101935.34;;;20.39;100.00
71778;BME280;59609;52.430;4.668;2023-06-22T05:59:06;101925.69;;;20.42;100.00
71778;BME280;59609;52.430;4.668;2023-06-22T06:01:31;101935.25;;;20.54;100.00
71778;BME280;59609;52.430;4.668;2023-06-22T06:03:59;101936.84;;;20.70;100.00
71778;BME280;59609;52.430;4.668;2023-06-22T06:06:25;101928.81;;;20.94;100.00
71778;BME280;59609;52.430;4.668;2023-06-22T06:08:54;101931.34;;;21.37;100.00
71778;BME280;59609;52.430;4.668;2023-06-22T06:11:19;101938.31;;;21.54;100.00
71778;BME280;59609;52.430;4.668;2023-06-22T06:13:50;101934.41;;;21.55;100.00
71778;BME280;59609;52.430;4.668;2023-06-22T06:16:15;101927.31;;;21.72;100.00
71778;BME280;59609;52.430;4.668;2023-06-22T06:18:41;101924.50;;;21.66;100.00
71778;BME280;59609;52.430;4.668;2023-06-22T06:21:06;101924.28;;;21.54;100.00
71778;BME280;59609;52.430;4.668;2023-06-22T06:23:32;101922.53;;;21.40;100.00
71778;BME280;59609;52.430;4.668;2023-06-22T06:25:57;101929.44;;;21.50;100.00
71778;BME280;59609;52.430;4.668;2023-06-22T06:28:24;101927.72;;;21.56;100.00
71778;BME280;59609;52.430;4.668;2023-06-22T06:30:50;101926.66;;;21.57;100.00
71778;BME280;59609;52.430;4.668;2023-06-22T06:33:17;101924.06;;;21.62;100.00
71778;BME280;59609;52.430;4.668;2023-06-22T06:35:42;101922.16;;;21.76;100.00
71778;BME280;59609;52.430;4.668;2023-06-22T06:38:07;101928.00;;;21.87;100.00
71778;BME280;59609;52.430;4.668;2023-06-22T06:40:33;101931.03;;;21.99;100.00
71778;BME280;59609;52.430;4.668;2023-06-22T06:42:58;101933.66;;;21.94;100.00
71778;BME280;59609;52.430;4.668;2023-06-22T06:45:24;101939.03;;;22.08;100.00
71778;BME280;59609;52.430;4.668;2023-06-22T06:47:51;101937.97;;;22.16;100.00
71778;BME280;59609;52.430;4.668;2023-06-22T06:50:20;101936.66;;;22.51;100.00
71778;BME280;59609;52.430;4.668;2023-06-22T06:52:49;101934.44;;;22.80;100.00
71778;BME280;59609;52.430;4.668;2023-06-22T06:55:15;101927.97;;;22.53;100.00
71778;BME280;59609;52.430;4.668;2023-06-22T06:57:42;101922.56;;;22.65;100.00
71778;BME280;59609;52.430;4.668;2023-06-22T07:00:09;101925.41;;;22.71;99.93
71778;BME280;59609;52.430;4.668;2023-06-22T07:02:40;101926.44;;;22.83;99.09
71778;BME280;59609;52.430;4.668;2023-06-22T07:05:06;101900.63;;;22.99;97.57
71778;BME280;59609;52.430;4.668;2023-06-22T07:07:32;101925.31;;;23.35;95.76
71778;BME280;59609;52.430;4.668;2023-06-22T07:09:58;101928.38;;;23.34;93.75
71778;BME280;59609;52.430;4.668;2023-06-22T07:12:23;101917.19;;;23.21;95.29
71778;BME280;59609;52.430;4.668;2023-06-22T07:14:49;101917.16;;;23.65;94.31
71778;BME280;59609;52.430;4.668;2023-06-22T07:17:15;101924.94;;;23.70;90.66
71778;BME280;59609;52.430;4.668;2023-06-22T07:19:40;101918.38;;;23.76;89.75
71778;BME280;59609;52.430;4.668;2023-06-22T07:22:10;101919.72;;;23.73;89.70
71778;BME280;59609;52.430;4.668;2023-06-22T07:24:35;101921.41;;;23.81;88.38
71778;BME280;59609;52.430;4.668;2023-06-22T07:27:02;101924.78;;;23.89;88.18
71778;BME280;59609;52.430;4.668;2023-06-22T07:29:34;101915.72;;;23.56;89.49
71778;BME280;59609;52.430;4.668;2023-06-22T07:32:00;101911.81;;;23.57;87.94
71778;BME280;59609;52.430;4.668;2023-06-22T07:34:32;101920.69;;;23.85;85.87
71778;BME280;59609;52.430;4.668;2023-06-22T07:36:58;101917.69;;;24.12;83.92
71778;BME280;59609;52.430;4.668;2023-06-22T07:39:24;101925.19;;;24.24;79.82
71778;BME280;59609;52.430;4.668;2023-06-22T07:41:51;101925.41;;;24.66;78.55
71778;BME280;59609;52.430;4.668;2023-06-22T07:44:17;101918.59;;;24.55;77.67
71778;BME280;59609;52.430;4.668;2023-06-22T07:46:42;101913.13;;;24.35;77.18
71778;BME280;59609;52.430;4.668;2023-06-22T07:49:08;101905.03;;;24.64;78.57
71778;BME280;59609;52.430;4.668;2023-06-22T07:51:34;101892.22;;;24.68;78.59
71778;BME280;59609;52.430;4.668;2023-06-22T07:53:59;101898.03;;;24.91;76.48
71778;BME280;59609;52.430;4.668;2023-06-22T07:56:25;101896.28;;;24.72;75.50
71778;BME280;59609;52.430;4.668;2023-06-22T07:58:50;101891.59;;;25.02;76.09
71778;BME280;59609;52.430;4.668;2023-06-22T08:01:16;101890.78;;;24.77;75.89
71778;BME280;59609;52.430;4.668;2023-06-22T08:03:45;101900.41;;;25.24;73.75
71778;BME280;59609;52.430;4.668;2023-06-22T08:06:16;101894.97;;;25.10;70.78
71778;BME280;59609;52.430;4.668;2023-06-22T08:08:42;101895.00;;;25.22;73.24
71778;BME280;59609;52.430;4.668;2023-06-22T08:11:08;101883.69;;;25.40;72.99
71778;BME280;59609;52.430;4.668;2023-06-22T08:13:34;101888.34;;;25.35;75.26
71778;BME280;59609;52.430;4.668;2023-06-22T08:15:59;101883.91;;;25.39;72.70
71778;BME280;59609;52.430;4.668;2023-06-22T08:18:25;101881.63;;;25.47;71.56
71778;BME280;59609;52.430;4.668;2023-06-22T08:20:50;101884.88;;;25.33;72.17
71778;BME280;59609;52.430;4.668;2023-06-22T08:23:16;101879.97;;;25.58;72.86
71778;BME280;59609;52.430;4.668;2023-06-22T08:25:45;101877.28;;;25.63;72.58
71778;BME280;59609;52.430;4.668;2023-06-22T08:28:11;101874.44;;;26.04;72.19
71778;BME280;59609;52.430;4.668;2023-06-22T08:30:36;101872.94;;;26.13;70.57
71778;BME280;59609;52.430;4.668;2023-06-22T08:33:02;101870.00;;;26.08;69.77
71778;BME280;59609;52.430;4.668;2023-06-22T08:35:34;101880.13;;;26.28;70.89
71778;BME280;59609;52.430;4.668;2023-06-22T08:37:59;101870.31;;;26.42;70.03
71778;BME280;59609;52.430;4.668;2023-06-22T08:40:25;101860.28;;;26.62;67.06
71778;BME280;59609;52.430;4.668;2023-06-22T08:42:50;101866.72;;;26.35;68.24
71778;BME280;59609;52.430;4.668;2023-06-22T08:45:19;101860.69;;;26.20;69.67
71778;BME280;59609;52.430;4.668;2023-06-22T08:47:44;101859.22;;;26.17;70.36
71778;BME280;59609;52.430;4.668;2023-06-22T08:50:10;101861.66;;;26.72;69.98
71778;BME280;59609;52.430;4.668;2023-06-22T08:52:40;101870.28;;;26.65;68.10
71778;BME280;59609;52.430;4.668;2023-06-22T08:55:09;101861.13;;;26.86;66.91
71778;BME280;59609;52.430;4.668;2023-06-22T08:57:34;101850.19;;;26.78;65.20
71778;BME280;59609;52.430;4.668;2023-06-22T09:00:02;101855.97;;;26.95;65.22
71778;BME280;59609;52.430;4.668;2023-06-22T09:02:30;101865.00;;;27.37;66.07
71778;BME280;59609;52.430;4.668;2023-06-22T09:04:56;101853.25;;;27.28;63.59
71778;BME280;59609;52.430;4.668;2023-06-22T09:07:22;101853.84;;;27.30;62.53
71778;BME280;59609;52.430;4.668;2023-06-22T09:09:48;101850.22;;;27.46;64.50
71778;BME280;59609;52.430;4.668;2023-06-22T09:12:14;101850.50;;;27.33;64.49
71778;BME280;59609;52.430;4.668;2023-06-22T09:14:39;101853.16;;;27.51;63.18
71778;BME280;59609;52.430;4.668;2023-06-22T09:17:05;101848.88;;;27.09;64.04
71778;BME280;59609;52.430;4.668;2023-06-22T09:19:30;101855.81;;;27.30;64.02
71778;BME280;59609;52.430;4.668;2023-06-22T09:21:56;101853.28;;;26.88;63.59
71778;BME280;59609;52.430;4.668;2023-06-22T09:24:21;101861.25;;;26.91;65.96
71778;BME280;59609;52.430;4.668;2023-06-22T09:26:46;101851.56;;;26.64;66.81
71778;BME280;59609;52.430;4.668;2023-06-22T09:29:15;101858.41;;;27.31;67.66
71778;BME280;59609;52.430;4.668;2023-06-22T09:31:40;101855.38;;;27.21;65.78
71778;BME280;59609;52.430;4.668;2023-06-22T09:34:09;101841.78;;;27.35;65.28
71778;BME280;59609;52.430;4.668;2023-06-22T09:36:34;101848.81;;;26.92;66.44
71778;BME280;59609;52.430;4.668;2023-06-22T09:39:00;101843.56;;;26.84;65.60
71778;BME280;59609;52.430;4.668;2023-06-22T09:41:31;101843.91;;;27.28;64.52
71778;BME280;59609;52.430;4.668;2023-06-22T09:43:59;101849.75;;;27.66;63.21
71778;BME280;59609;52.430;4.668;2023-06-22T09:46:24;101852.31;;;27.51;63.01
71778;BME280;59609;52.430;4.668;2023-06-22T09:48:56;101850.09;;;27.41;62.80
71778;BME280;59609;52.430;4.668;2023-06-22T09:51:22;101838.03;;;27.18;63.85
71778;BME280;59609;52.430;4.668;2023-06-22T09:53:49;101846.38;;;27.69;64.17
71778;BME280;59609;52.430;4.668;2023-06-22T09:56:14;101841.34;;;27.43;64.22
71778;BME280;59609;52.430;4.668;2023-06-22T09:58:42;101842.13;;;27.83;63.34
71778;BME280;59609;52.430;4.668;2023-06-22T10:01:08;101839.56;;;27.82;62.76
71778;BME280;59609;52.430;4.668;2023-06-22T10:03:33;101841.69;;;27.91;61.63
71778;BME280;59609;52.430;4.668;2023-06-22T10:05:59;101837.72;;;27.76;63.22
71778;BME280;59609;52.430;4.668;2023-06-22T10:08:24;101842.56;;;27.75;62.64
71778;BME280;59609;52.430;4.668;2023-06-22T10:10:50;101835.34;;;28.18;62.16
71778;BME280;59609;52.430;4.668;2023-06-22T10:13:15;101830.72;;;28.11;60.29
71778;BME280;59609;52.430;4.668;2023-06-22T10:15:41;101836.19;;;27.68;61.72
71778;BME280;59609;52.430;4.668;2023-06-22T10:18:10;101832.84;;;27.54;61.33
71778;BME280;59609;52.430;4.668;2023-06-22T10:20:35;101833.34;;;27.51;61.80
71778;BME280;59609;52.430;4.668;2023-06-22T10:23:01;101826.47;;;27.47;60.68
71778;BME280;59609;52.430;4.668;2023-06-22T10:25:26;101831.47;;;27.57;60.16
71778;BME280;59609;52.430;4.668;2023-06-22T10:27:52;101829.66;;;27.51;60.36
71778;BME280;59609;52.430;4.668;2023-06-22T10:30:17;101839.81;;;27.80;60.40
71778;BME280;59609;52.430;4.668;2023-06-22T10:32:43;101826.75;;;28.12;58.95
71778;BME280;59609;52.430;4.668;2023-06-22T10:35:09;101834.81;;;28.04;57.54
71778;BME280;59609;52.430;4.668;2023-06-22T10:37:36;101830.41;;;28.46;56.30
71778;BME280;59609;52.430;4.668;2023-06-22T10:40:01;101836.41;;;28.88;54.59
71778;BME280;59609;52.430;4.668;2023-06-22T10:42:27;101827.22;;;28.81;54.90
71778;BME280;59609;52.430;4.668;2023-06-22T10:44:52;101823.84;;;28.07;53.98
71778;BME280;59609;52.430;4.668;2023-06-22T10:47:18;101821.69;;;27.98;56.64
71778;BME280;59609;52.430;4.668;2023-06-22T10:49:43;101819.19;;;28.01;56.40
71778;BME280;59609;52.430;4.668;2023-06-22T10:52:15;101821.34;;;27.94;54.84
71778;BME280;59609;52.430;4.668;2023-06-22T10:54:41;101827.88;;;28.28;56.85
71778;BME280;59609;52.430;4.668;2023-06-22T10:57:09;101818.69;;;28.04;55.31
71778;BME280;59609;52.430;4.668;2023-06-22T10:59:34;101817.47;;;28.00;55.93
71778;BME280;59609;52.430;4.668;2023-06-22T11:02:00;101820.38;;;27.55;56.52
71778;BME280;59609;52.430;4.668;2023-06-22T11:04:25;101815.06;;;27.76;58.04
71778;BME280;59609;52.430;4.668;2023-06-22T11:06:54;101822.72;;;27.75;56.77
71778;BME280;59609;52.430;4.668;2023-06-22T11:09:21;101814.03;;;27.20;57.77
71778;BME280;59609;52.430;4.668;2023-06-22T11:11:47;101815.75;;;27.21;58.39
71778;BME280;59609;52.430;4.668;2023-06-22T11:14:19;101815.94;;;27.31;58.19
71778;BME280;59609;52.430;4.668;2023-06-22T11:16:45;101818.03;;;27.07;57.17
71778;BME280;59609;52.430;4.668;2023-06-22T11:19:11;101813.59;;;27.11;58.31
71778;BME280;59609;52.430;4.668;2023-06-22T11:21:37;101810.13;;;27.38;58.20
71778;BME280;59609;52.430;4.668;2023-06-22T11:24:03;101810.84;;;27.17;58.15
71778;BME280;59609;52.430;4.668;2023-06-22T11:26:28;101809.66;;;27.29;58.07
71778;BME280;59609;52.430;4.668;2023-06-22T11:28:53;101812.41;;;27.24;58.92
71778;BME280;59609;52.430;4.668;2023-06-22T11:31:22;101809.88;;;27.11;59.55
71778;BME280;59609;52.430;4.668;2023-06-22T11:33:47;101807.78;;;27.18;57.51
71778;BME280;59609;52.430;4.668;2023-06-22T11:36:19;101806.75;;;27.24;58.01
71778;BME280;59609;52.430;4.668;2023-06-22T11:38:47;101803.81;;;27.19;59.37
71778;BME280;59609;52.430;4.668;2023-06-22T11:41:13;101803.59;;;27.09;59.42
71778;BME280;59609;52.430;4.668;2023-06-22T11:43:38;101806.47;;;27.26;58.48
71778;BME280;59609;52.430;4.668;2023-06-22T11:46:07;101805.09;;;27.11;58.47
71778;BME280;59609;52.430;4.668;2023-06-22T11:48:32;101802.00;;;27.13;58.21
71778;BME280;59609;52.430;4.668;2023-06-22T11:50:58;101798.25;;;27.24;58.47
71778;BME280;59609;52.430;4.668;2023-06-22T11:53:26;101803.47;;;27.44;57.16
71778;BME280;59609;52.430;4.668;2023-06-22T11:55:52;101806.66;;;27.47;56.96
71778;BME280;59609;52.430;4.668;2023-06-22T11:58:19;101800.41;;;27.79;56.23
71778;BME280;59609;52.430;4.668;2023-06-22T12:00:44;101796.25;;;27.53;56.83
71778;BME280;59609;52.430;4.668;2023-06-22T12:03:10;101798.00;;;27.26;57.51
71778;BME280;59609;52.430;4.668;2023-06-22T12:05:37;101795.19;;;27.42;55.38
71778;BME280;59609;52.430;4.668;2023-06-22T12:08:02;101792.69;;;27.29;56.18
71778;BME280;59609;52.430;4.668;2023-06-22T12:10:28;101785.47;;;27.22;56.13
71778;BME280;59609;52.430;4.668;2023-06-22T12:12:54;101791.03;;;26.88;57.03
71778;BME280;59609;52.430;4.668;2023-06-22T12:15:20;101784.88;;;26.91;57.25
71778;BME280;59609;52.430;4.668;2023-06-22T12:17:51;101769.66;;;26.69;59.07
71778;BME280;59609;52.430;4.668;2023-06-22T12:20:17;101778.91;;;26.65;58.48
71778;BME280;59609;52.430;4.668;2023-06-22T12:22:43;101779.72;;;26.37;59.04
71778;BME280;59609;52.430;4.668;2023-06-22T12:25:08;101769.66;;;26.29;60.10
71778;BME280;59609;52.430;4.668;2023-06-22T12:27:35;101773.81;;;26.38;61.10
71778;BME280;59609;52.430;4.668;2023-06-22T12:30:04;101765.84;;;26.24;61.39
71778;BME280;59609;52.430;4.668;2023-06-22T12:32:29;101765.34;;;26.15;62.79
71778;BME280;59609;52.430;4.668;2023-06-22T12:34:55;101766.44;;;26.14;62.19
71778;BME280;59609;52.430;4.668;2023-06-22T12:37:21;101769.50;;;26.36;63.69
71778;BME280;59609;52.430;4.668;2023-06-22T12:39:46;101751.63;;;26.19;60.95
71778;BME280;59609;52.430;4.668;2023-06-22T12:42:12;101764.00;;;25.94;62.03
71778;BME280;59609;52.430;4.668;2023-06-22T12:44:38;101751.25;;;25.92;61.30
71778;BME280;59609;52.430;4.668;2023-06-22T12:47:05;101758.13;;;25.84;61.70
71778;BME280;59609;52.430;4.668;2023-06-22T12:49:30;101755.53;;;25.83;60.89
71778;BME280;59609;52.430;4.668;2023-06-22T12:51:55;101748.66;;;25.67;61.71
71778;BME280;59609;52.430;4.668;2023-06-22T12:54:21;101744.13;;;25.78;62.84
71778;BME280;59609;52.430;4.668;2023-06-22T12:56:46;101733.81;;;25.83;63.12